Time;durP1;ratioP1;P1;durP2;ratioP2;P2;SDS_P1;SDS_P2;PMS_P1;PMS_P2;Temp;Humidity;BMP_temperature;BMP_pressure;BME280_temperature;BME280_humidity;BME280_pressure;Samples;Min_cycle;Max_cycle;Signal;HPM_P1;HPM_P2
2024/01/08 00:02:40;;;;;;;8.48;5.57;;;22.60;39.90;;;;;;6222265;27;83714;-59
2024/01/08 00:05:41;;;;;;;8.18;5.20;;;22.60;39.60;;;;;;6223067;27;80474;-60
2024/01/08 00:08:41;;;;;;;11.27;5.80;;;22.60;39.40;;;;;;6223647;27;80384;-55
2024/01/08 00:11:42;;;;;;;8.23;5.47;;;22.50;39.10;;;;;;6222530;27;80833;-50
2024/01/08 00:14:43;;;;;;;7.68;5.65;;;22.60;38.90;;;;;;6222299;27;80585;-54
2024/01/08 00:17:43;;;;;;;8.45;5.32;;;22.50;38.90;;;;;;6222864;27;80574;-54
2024/01/08 00:20:43;;;;;;;10.45;6.00;;;22.50;38.20;;;;;;6212338;27;81434;-55
2024/01/08 00:23:44;;;;;;;10.00;5.97;;;22.50;38.20;;;;;;6222851;27;80482;-56
2024/01/08 00:26:44;;;;;;;10.52;6.30;;;22.50;38.10;;;;;;6226663;27;80406;-53
2024/01/08 00:29:45;;;;;;;10.25;6.07;;;22.50;38.10;;;;;;6225992;27;81272;-51
2024/01/08 00:32:45;;;;;;;10.18;5.63;;;22.50;38.20;;;;;;6226220;27;80829;-55
2024/01/08 00:35:46;;;;;;;9.93;6.03;;;22.50;38.10;;;;;;6225820;27;81373;-55
2024/01/08 00:38:46;;;;;;;9.48;5.93;;;22.50;38.30;;;;;;6227645;27;81792;-52
2024/01/08 00:41:47;;;;;;;9.10;6.22;;;22.50;38.60;;;;;;6226289;27;80731;-50
2024/01/08 00:44:47;;;;;;;9.50;5.38;;;22.50;37.90;;;;;;6225496;27;80718;-54
2024/01/08 00:47:49;;;;;;;9.65;5.63;;;22.50;38.30;;;;;;6224258;27;80882;-61
2024/01/08 00:50:49;;;;;;;9.27;6.00;;;22.50;38.40;;;;;;6224980;27;80368;-61
2024/01/08 00:53:51;;;;;;;10.23;6.13;;;22.50;37.80;;;;;;6225722;27;81892;-61
2024/01/08 00:56:52;;;;;;;9.10;6.38;;;22.50;37.30;;;;;;6225770;27;80491;-61
2024/01/08 00:59:52;;;;;;;11.27;6.43;;;22.50;37.60;;;;;;6226539;27;80704;-61
2024/01/08 01:02:53;;;;;;;9.38;5.90;;;22.50;37.60;;;;;;6227195;27;80526;-60
2024/01/08 01:05:53;;;;;;;8.45;5.70;;;22.50;37.60;;;;;;6225172;27;80800;-62
2024/01/08 01:08:54;;;;;;;9.07;5.85;;;22.40;37.50;;;;;;6210996;27;81111;-61
2024/01/08 01:11:56;;;;;;;10.75;6.53;;;22.50;37.60;;;;;;6219960;27;80390;-60
2024/01/08 01:14:56;;;;;;;12.95;6.32;;;22.50;37.50;;;;;;6222561;27;84893;-61
2024/01/08 01:17:57;;;;;;;9.02;6.25;;;22.40;37.50;;;;;;6223144;27;80879;-60
2024/01/08 01:20:57;;;;;;;9.98;5.97;;;22.40;37.30;;;;;;6222514;27;80510;-62
2024/01/08 01:23:58;;;;;;;8.60;5.85;;;22.40;37.80;;;;;;6218893;27;80500;-51
2024/01/08 01:26:58;;;;;;;10.57;6.15;;;22.40;37.90;;;;;;6218998;27;80335;-52
2024/01/08 01:29:59;;;;;;;11.40;6.30;;;22.40;37.30;;;;;;6210008;27;80859;-54
2024/01/08 01:32:59;;;;;;;10.00;6.53;;;22.40;37.50;;;;;;6209150;28;87635;-51
2024/01/08 01:36:00;;;;;;;10.32;5.90;;;22.40;37.60;;;;;;6201930;27;82213;-52
2024/01/08 01:39:00;;;;;;;9.77;5.90;;;22.40;37.60;;;;;;6202350;27;81082;-57
2024/01/08 01:42:01;;;;;;;8.07;5.40;;;22.40;37.70;;;;;;6202276;27;80363;-56
2024/01/08 01:45:01;;;;;;;9.80;5.97;;;22.40;37.60;;;;;;6216721;27;81042;-56
2024/01/08 01:48:02;;;;;;;8.18;5.40;;;22.40;38.10;;;;;;6224444;27;81817;-54
2024/01/08 01:51:02;;;;;;;9.27;6.32;;;22.40;37.50;;;;;;6215190;27;80305;-51
2024/01/08 01:54:02;;;;;;;10.55;5.90;;;22.40;37.30;;;;;;6214960;27;80771;-51
2024/01/08 01:57:03;;;;;;;9.10;6.35;;;22.30;37.10;;;;;;6201449;27;80834;-57
2024/01/08 02:00:04;;;;;;;12.38;6.03;;;22.30;36.90;;;;;;6206555;28;81894;-61
2024/01/08 02:03:13;;;;;;;11.32;6.43;;;22.30;37.40;;;;;;6214555;27;80290;-63
2024/01/08 02:06:13;;;;;;;9.85;6.68;;;22.30;36.90;;;;;;6209307;27;82179;-62
2024/01/08 02:09:14;;;;;;;9.82;6.35;;;22.30;36.40;;;;;;6211978;27;80802;-62
2024/01/08 02:12:16;;;;;;;9.20;6.03;;;22.40;36.50;;;;;;6207046;28;81662;-62
2024/01/08 02:15:17;;;;;;;11.80;6.90;;;22.30;36.30;;;;;;6215033;27;80988;-61
2024/01/08 02:18:17;;;;;;;10.77;6.95;;;22.30;36.50;;;;;;6220424;27;80352;-62
2024/01/08 02:21:18;;;;;;;11.05;6.53;;;22.30;36.30;;;;;;6208289;27;80686;-63
2024/01/08 02:24:18;;;;;;;8.82;5.65;;;22.30;36.40;;;;;;6201718;28;80681;-64
2024/01/08 02:27:19;;;;;;;10.55;6.40;;;22.30;36.30;;;;;;6200305;27;80533;-64
2024/01/08 02:30:19;;;;;;;8.30;5.47;;;22.30;36.60;;;;;;6209634;27;84901;-63
2024/01/08 02:33:20;;;;;;;9.43;6.15;;;22.30;36.60;;;;;;6205882;28;80527;-64
2024/01/08 02:36:20;;;;;;;8.63;5.43;;;22.30;36.30;;;;;;6207770;27;80134;-62
2024/01/08 02:39:21;;;;;;;9.07;6.03;;;22.30;36.50;;;;;;6221954;27;85747;-63
2024/01/08 02:42:21;;;;;;;9.63;6.07;;;22.30;36.40;;;;;;6204762;27;81029;-63
2024/01/08 02:45:22;;;;;;;10.13;5.95;;;22.30;36.40;;;;;;6205414;27;80647;-62
2024/01/08 02:48:22;;;;;;;8.48;5.60;;;22.20;36.60;;;;;;6215935;27;80491;-63
2024/01/08 02:51:23;;;;;;;9.18;5.72;;;22.20;36.60;;;;;;6215348;28;83604;-63
2024/01/08 02:54:24;;;;;;;9.35;5.80;;;22.20;36.40;;;;;;6222629;27;80717;-63
2024/01/08 02:57:24;;;;;;;8.80;6.03;;;22.20;37.00;;;;;;6213569;28;81767;-62
2024/01/08 03:00:25;;;;;;;10.95;5.45;;;22.20;38.10;;;;;;6211950;27;80701;-61
2024/01/08 03:03:25;;;;;;;9.55;6.15;;;22.20;38.00;;;;;;6203664;28;80860;-63
2024/01/08 03:06:26;;;;;;;9.95;5.45;;;22.20;37.40;;;;;;6203220;28;80531;-62
2024/01/08 03:09:26;;;;;;;8.82;5.97;;;22.20;37.30;;;;;;6211735;27;80426;-62
2024/01/08 03:12:27;;;;;;;8.82;5.20;;;22.20;37.10;;;;;;6207754;27;80553;-63
2024/01/08 03:15:27;;;;;;;9.13;6.15;;;22.20;37.30;;;;;;6209130;27;80891;-64
2024/01/08 03:18:28;;;;;;;7.90;5.03;;;22.30;37.40;;;;;;6223504;27;80932;-62
2024/01/08 03:21:28;;;;;;;8.65;5.65;;;22.20;36.80;;;;;;6215128;27;80320;-66
2024/01/08 03:24:29;;;;;;;9.43;5.22;;;22.30;37.30;;;;;;6204243;27;80873;-66
2024/01/08 03:27:29;;;;;;;9.45;5.78;;;22.30;37.20;;;;;;6230387;27;80628;-63
2024/01/08 03:30:30;;;;;;;13.07;6.40;;;22.20;36.70;;;;;;6225604;27;80859;-63
2024/01/08 03:33:30;;;;;;;9.88;5.75;;;22.20;36.60;;;;;;6218772;27;82780;-52
2024/01/08 03:36:31;;;;;;;9.45;5.53;;;22.20;37.00;;;;;;6217697;27;80933;-50
2024/01/08 03:39:31;;;;;;;8.93;5.93;;;22.30;36.30;;;;;;6216118;27;80516;-52
2024/01/08 03:42:32;;;;;;;8.00;5.65;;;22.20;36.50;;;;;;6218800;27;80518;-51
2024/01/08 03:45:32;;;;;;;8.02;4.97;;;22.20;36.20;;;;;;6218868;27;81049;-51
2024/01/08 03:48:33;;;;;;;8.52;5.63;;;22.20;36.30;;;;;;6216537;27;80340;-52
2024/01/08 03:51:34;;;;;;;8.38;5.45;;;22.20;36.10;;;;;;6216254;27;80153;-56
2024/01/08 03:54:35;;;;;;;8.70;5.90;;;22.20;36.30;;;;;;6216972;27;81481;-53
2024/01/08 03:57:35;;;;;;;8.20;6.00;;;22.20;36.00;;;;;;6218141;27;81351;-52
2024/01/08 04:00:36;;;;;;;9.52;6.00;;;22.20;35.90;;;;;;6213629;27;80668;-51
2024/01/08 04:03:36;;;;;;;10.57;6.50;;;22.20;36.30;;;;;;6214879;27;81228;-54
2024/01/08 04:06:37;;;;;;;10.52;6.38;;;22.20;36.40;;;;;;6211849;27;85292;-54
2024/01/08 04:09:37;;;;;;;7.68;5.88;;;22.30;36.90;;;;;;6207243;27;80450;-52
2024/01/08 04:12:38;;;;;;;9.68;5.85;;;22.30;36.40;;;;;;6207829;27;81594;-52
2024/01/08 04:15:38;;;;;;;7.60;5.65;;;22.30;36.80;;;;;;6216939;27;80172;-52
2024/01/08 04:18:39;;;;;;;11.85;7.05;;;22.30;36.50;;;;;;6222641;27;80333;-56
2024/01/08 04:21:39;;;;;;;8.35;5.75;;;22.30;36.10;;;;;;6227497;27;80435;-56
2024/01/08 04:24:40;;;;;;;8.85;6.15;;;22.30;36.30;;;;;;6213178;27;82034;-55
2024/01/08 04:27:40;;;;;;;11.68;7.03;;;22.30;35.90;;;;;;6216149;27;81911;-63
2024/01/08 04:30:41;;;;;;;10.38;6.60;;;22.40;35.40;;;;;;6212784;27;81134;-64
2024/01/08 04:33:41;;;;;;;8.85;6.00;;;22.40;35.30;;;;;;6206140;27;80973;-63
2024/01/08 04:36:44;;;;;;;10.23;6.60;;;22.50;34.50;;;;;;6204442;27;80557;-64
2024/01/08 04:39:45;;;;;;;9.43;6.18;;;22.50;34.70;;;;;;6205980;27;80369;-65
2024/01/08 04:42:45;;;;;;;10.45;6.82;;;22.50;35.20;;;;;;6217769;27;81235;-65
2024/01/08 04:45:46;;;;;;;10.82;6.95;;;22.50;34.70;;;;;;6206495;27;80525;-63
2024/01/08 04:48:46;;;;;;;8.93;6.13;;;22.60;34.40;;;;;;6218599;27;80781;-63
2024/01/08 04:51:49;;;;;;;7.75;6.07;;;22.60;34.10;;;;;;6203374;27;80592;-68
2024/01/08 04:54:50;;;;;;;9.75;6.70;;;22.60;34.00;;;;;;6208835;27;81840;-67
2024/01/08 04:57:50;;;;;;;10.45;6.95;;;22.60;33.10;;;;;;6227815;27;80765;-66
2024/01/08 05:00:51;;;;;;;10.57;7.00;;;22.60;32.80;;;;;;6214509;27;80618;-64
2024/01/08 05:03:52;;;;;;;9.27;6.25;;;22.60;32.70;;;;;;6210546;27;83531;-55
2024/01/08 05:06:52;;;;;;;8.50;6.13;;;22.60;32.60;;;;;;6213297;27;83167;-59
2024/01/08 05:09:53;;;;;;;10.95;6.38;;;22.70;32.90;;;;;;6211626;27;85096;-52
2024/01/08 05:12:53;;;;;;;12.18;6.82;;;22.70;33.00;;;;;;6215709;27;80263;-55
2024/01/08 05:15:54;;;;;;;9.93;6.13;;;22.80;33.70;;;;;;6204171;27;80905;-49
2024/01/08 05:18:54;;;;;;;9.63;6.55;;;22.70;33.60;;;;;;6217052;28;87350;-48
2024/01/08 05:21:55;;;;;;;10.95;6.80;;;22.80;33.10;;;;;;6212905;27;80444;-50
2024/01/08 05:24:56;;;;;;;9.30;5.97;;;22.80;33.30;;;;;;6225648;27;80981;-52
2024/01/08 05:27:56;;;;;;;9.25;6.15;;;22.80;33.80;;;;;;6225945;27;80466;-47
2024/01/08 05:30:57;;;;;;;13.57;6.00;;;22.90;33.60;;;;;;6224617;27;80521;-54
2024/01/08 05:33:57;;;;;;;11.57;6.75;;;22.90;33.60;;;;;;6215676;27;82005;-47
2024/01/08 05:36:58;;;;;;;10.38;6.25;;;22.90;33.60;;;;;;6201300;27;80553;-55
2024/01/08 05:39:58;;;;;;;11.40;5.85;;;22.90;33.70;;;;;;6213030;27;80762;-51
2024/01/08 05:42:59;;;;;;;12.88;5.90;;;23.00;33.80;;;;;;6204851;27;80454;-53
2024/01/08 05:46:00;;;;;;;10.38;6.68;;;23.00;34.20;;;;;;6207309;27;80710;-55
2024/01/08 05:49:00;;;;;;;8.32;6.45;;;23.00;33.30;;;;;;6212154;27;80665;-51
2024/01/08 05:52:00;;;;;;;8.98;6.00;;;23.00;33.60;;;;;;6211934;27;80723;-50
2024/01/08 05:55:01;;;;;;;12.30;6.28;;;23.00;33.90;;;;;;6218547;27;81543;-49
2024/01/08 05:58:01;;;;;;;9.20;6.45;;;23.00;33.50;;;;;;6213370;27;86999;-65
2024/01/08 06:01:02;;;;;;;10.80;6.38;;;23.00;33.90;;;;;;6215851;27;80691;-64
2024/01/08 06:04:03;;;;;;;8.82;5.95;;;23.00;33.40;;;;;;6218193;28;82937;-60
2024/01/08 06:07:03;;;;;;;10.65;5.85;;;23.00;33.10;;;;;;6211618;27;80678;-62
2024/01/08 06:10:04;;;;;;;8.57;5.70;;;23.00;33.70;;;;;;6216677;27;80681;-61
2024/01/08 06:13:05;;;;;;;10.40;6.47;;;23.00;33.90;;;;;;6217920;27;82382;-62
2024/01/08 06:16:05;;;;;;;9.75;6.10;;;22.90;33.70;;;;;;6225483;27;81716;-63
2024/01/08 06:19:06;;;;;;;8.45;5.80;;;22.90;33.50;;;;;;6222539;27;81332;-61
2024/01/08 06:22:06;;;;;;;10.85;6.82;;;22.90;33.90;;;;;;6224478;27;80207;-61
2024/01/08 06:25:07;;;;;;;11.63;6.22;;;22.90;33.90;;;;;;6223793;27;80536;-61
2024/01/08 06:28:07;;;;;;;10.32;6.75;;;22.90;33.90;;;;;;6225116;27;81630;-62
2024/01/08 06:31:08;;;;;;;10.98;6.60;;;22.80;33.60;;;;;;6223228;28;80556;-61
2024/01/08 06:34:08;;;;;;;9.35;6.82;;;22.80;33.90;;;;;;6216296;27;81235;-61
2024/01/08 06:37:09;;;;;;;10.15;6.72;;;22.80;33.50;;;;;;6200710;27;80260;-61
2024/01/08 06:40:09;;;;;;;11.20;6.18;;;22.70;33.20;;;;;;6200728;27;80779;-60
2024/01/08 06:43:10;;;;;;;11.30;6.18;;;22.70;33.60;;;;;;6211911;27;80588;-61
2024/01/08 06:46:10;;;;;;;9.65;6.47;;;22.70;33.10;;;;;;6204235;27;82825;-63
2024/01/08 06:49:11;;;;;;;9.32;7.00;;;22.70;33.10;;;;;;6207447;28;80946;-64
2024/01/08 06:52:11;;;;;;;10.63;6.72;;;22.60;32.20;;;;;;6202902;27;83173;-63
2024/01/08 06:55:12;;;;;;;10.40;7.10;;;22.60;32.30;;;;;;6214059;27;80204;-60
2024/01/08 06:58:13;;;;;;;15.82;6.82;;;22.50;32.80;;;;;;6212891;27;80847;-60
2024/01/08 07:01:13;;;;;;;9.75;6.65;;;22.50;32.70;;;;;;6215932;27;83404;-59
2024/01/08 07:04:14;;;;;;;8.75;6.18;;;22.50;33.30;;;;;;6211429;28;80378;-59
2024/01/08 07:07:14;;;;;;;10.68;6.28;;;22.50;32.80;;;;;;6212242;27;80933;-58
2024/01/08 07:10:15;;;;;;;8.70;6.40;;;22.50;33.40;;;;;;6213854;27;80492;-59
2024/01/08 07:13:15;;;;;;;9.98;6.80;;;22.50;32.80;;;;;;6221828;27;81350;-50
2024/01/08 07:16:16;;;;;;;9.20;6.53;;;22.40;33.40;;;;;;6222568;27;80421;-49
2024/01/08 07:19:16;;;;;;;9.27;6.63;;;22.40;33.30;;;;;;6215462;27;80910;-51
2024/01/08 07:22:17;;;;;;;10.10;5.93;;;22.40;33.00;;;;;;6213387;28;80711;-48
2024/01/08 07:25:17;;;;;;;9.55;5.55;;;22.40;32.70;;;;;;6204270;27;83452;-50
2024/01/08 07:28:18;;;;;;;9.40;5.68;;;22.30;32.60;;;;;;6212726;27;80656;-50
2024/01/08 07:31:19;;;;;;;8.10;5.35;;;22.30;32.60;;;;;;6216049;28;81702;-49
2024/01/08 07:34:19;;;;;;;9.13;5.80;;;22.30;32.70;;;;;;6204386;27;80457;-56
2024/01/08 07:37:20;;;;;;;11.40;6.45;;;22.30;32.80;;;;;;6198544;27;80517;-52
2024/01/08 07:40:20;;;;;;;8.57;5.07;;;22.20;33.00;;;;;;6195170;27;82689;-55
2024/01/08 07:43:21;;;;;;;9.32;5.75;;;22.30;32.70;;;;;;6207875;27;80565;-56
2024/01/08 07:46:21;;;;;;;9.68;5.88;;;22.20;32.60;;;;;;6212814;27;80945;-54
2024/01/08 07:49:22;;;;;;;13.13;5.93;;;22.20;32.30;;;;;;6209944;28;83304;-55
2024/01/08 07:52:22;;;;;;;9.57;6.55;;;22.20;32.70;;;;;;6205164;27;82669;-58
2024/01/08 07:55:23;;;;;;;12.15;6.35;;;22.20;32.50;;;;;;6220694;27;80728;-57
2024/01/08 07:58:24;;;;;;;13.55;5.85;;;22.20;32.70;;;;;;6214162;27;81067;-55
2024/01/08 08:01:24;;;;;;;9.38;5.72;;;22.20;33.30;;;;;;6213893;27;80243;-54
2024/01/08 08:04:25;;;;;;;9.05;5.85;;;22.20;33.90;;;;;;6216173;27;81029;-57
2024/01/08 08:07:25;;;;;;;9.85;5.07;;;22.20;34.00;;;;;;6210172;27;82084;-57
2024/01/08 08:10:26;;;;;;;10.68;5.85;;;22.20;34.20;;;;;;6217231;27;80426;-54
2024/01/08 08:13:27;;;;;;;8.45;5.78;;;22.20;34.30;;;;;;6218379;27;81433;-54
2024/01/08 08:16:28;;;;;;;9.27;6.05;;;22.20;34.30;;;;;;6207383;27;81680;-56
2024/01/08 08:19:29;;;;;;;8.20;5.43;;;22.20;34.20;;;;;;6220831;27;80734;-55
2024/01/08 08:22:29;;;;;;;9.05;5.55;;;22.20;34.30;;;;;;6225789;28;82485;-55
2024/01/08 08:25:30;;;;;;;13.30;5.90;;;22.20;34.30;;;;;;6199192;27;83716;-57
2024/01/08 08:28:30;;;;;;;10.93;5.60;;;22.20;34.10;;;;;;6212622;27;80910;-55
2024/01/08 08:31:31;;;;;;;11.07;6.50;;;22.20;34.00;;;;;;6214908;27;80922;-57
2024/01/08 08:34:31;;;;;;;7.35;4.78;;;22.30;34.00;;;;;;6230670;27;81135;-55
2024/01/08 08:37:32;;;;;;;11.88;5.65;;;22.30;34.50;;;;;;6213772;27;80504;-56
2024/01/08 08:40:32;;;;;;;15.85;6.28;;;22.30;33.40;;;;;;6215964;27;80447;-57
2024/01/08 08:43:34;;;;;;;12.13;6.28;;;22.40;32.20;;;;;;6210327;27;80895;-53
2024/01/08 08:46:35;;;;;;;7.93;5.70;;;22.40;31.80;;;;;;6217333;27;83374;-55
2024/01/08 08:49:35;;;;;;;10.80;6.13;;;22.50;32.00;;;;;;6226077;27;80951;-58
2024/01/08 08:52:36;;;;;;;9.35;5.88;;;22.50;31.90;;;;;;6209936;27;80990;-53
2024/01/08 08:55:36;;;;;;;8.40;5.68;;;22.60;31.60;;;;;;6222299;27;82236;-59
2024/01/08 08:58:37;;;;;;;11.40;6.05;;;22.70;31.70;;;;;;6224164;27;80694;-58
2024/01/08 09:01:38;;;;;;;10.05;6.05;;;22.70;31.70;;;;;;6223358;27;80534;-56
2024/01/08 09:04:38;;;;;;;8.40;5.70;;;22.70;31.50;;;;;;6221770;27;80466;-57
2024/01/08 09:07:39;;;;;;;8.82;5.55;;;22.80;31.70;;;;;;6221591;27;80873;-55
2024/01/08 09:10:39;;;;;;;7.88;5.90;;;22.80;31.60;;;;;;6218523;27;80475;-57
2024/01/08 09:13:40;;;;;;;9.65;6.15;;;22.80;31.10;;;;;;6221300;27;81289;-55
2024/01/08 09:16:40;;;;;;;8.60;5.60;;;22.90;31.30;;;;;;6220974;27;86379;-55
2024/01/08 09:19:41;;;;;;;11.43;5.93;;;22.90;30.90;;;;;;6225609;27;80591;-53
2024/01/08 09:22:41;;;;;;;9.60;6.07;;;22.90;31.00;;;;;;6208023;27;80384;-53
2024/01/08 09:25:42;;;;;;;9.95;6.25;;;23.00;30.80;;;;;;6223116;27;81652;-55
2024/01/08 09:28:42;;;;;;;9.02;5.95;;;23.00;30.70;;;;;;6214275;27;80102;-56
2024/01/08 09:31:44;;;;;;;9.80;5.82;;;23.00;30.80;;;;;;6215702;27;80770;-58
2024/01/08 09:34:45;;;;;;;11.32;6.90;;;23.00;30.60;;;;;;6203265;27;80390;-57
2024/01/08 09:37:45;;;;;;;8.68;6.30;;;23.00;30.60;;;;;;6216006;27;81164;-55
2024/01/08 09:40:46;;;;;;;9.73;6.45;;;23.00;30.60;;;;;;6205369;27;80386;-56
2024/01/08 09:43:46;;;;;;;8.85;5.88;;;23.00;30.50;;;;;;6223083;28;80159;-54
2024/01/08 09:46:47;;;;;;;6.93;5.63;;;23.00;30.70;;;;;;6224137;27;81019;-57
2024/01/08 09:49:47;;;;;;;9.25;6.43;;;23.00;30.40;;;;;;6224803;27;80586;-55
2024/01/08 09:52:48;;;;;;;11.88;5.90;;;23.10;30.30;;;;;;6224102;27;80550;-50
2024/01/08 09:55:48;;;;;;;7.80;6.00;;;23.00;30.20;;;;;;6224520;27;82057;-50
2024/01/08 09:58:49;;;;;;;8.65;6.07;;;23.10;30.90;;;;;;6224548;27;82289;-59
2024/01/08 10:01:49;;;;;;;11.73;7.05;;;23.10;30.40;;;;;;6201996;27;80812;-59
2024/01/08 10:04:50;;;;;;;8.70;5.65;;;23.10;30.00;;;;;;6201759;27;80492;-59
2024/01/08 10:07:50;;;;;;;10.43;6.53;;;23.10;30.20;;;;;;6204737;27;80324;-59
2024/01/08 10:10:51;;;;;;;9.40;6.32;;;23.10;30.10;;;;;;6204529;27;80735;-59
2024/01/08 10:13:51;;;;;;;8.40;5.70;;;23.20;30.20;;;;;;6217447;27;80626;-60
2024/01/08 10:16:52;;;;;;;9.40;6.47;;;23.20;30.00;;;;;;6224070;27;80720;-59
2024/01/08 10:19:52;;;;;;;9.48;6.22;;;23.20;30.10;;;;;;6222532;27;81562;-59
2024/01/08 10:22:53;;;;;;;11.85;6.55;;;23.20;30.00;;;;;;6205265;28;81339;-59
2024/01/08 10:25:53;;;;;;;9.93;6.35;;;23.30;30.00;;;;;;6201079;27;80756;-58
2024/01/08 10:28:54;;;;;;;10.25;6.47;;;23.30;30.00;;;;;;6213169;27;81021;-60
2024/01/08 10:31:54;;;;;;;8.88;6.00;;;23.20;30.00;;;;;;6216801;28;80311;-58
2024/01/08 10:34:56;;;;;;;9.50;6.47;;;23.30;30.00;;;;;;6225856;27;80669;-62
2024/01/08 10:37:56;;;;;;;8.57;6.05;;;23.30;30.00;;;;;;6211831;27;80368;-61
2024/01/08 10:40:57;;;;;;;10.77;6.65;;;23.30;30.00;;;;;;6211531;27;80912;-62
2024/01/08 10:43:57;;;;;;;9.55;6.25;;;23.40;30.00;;;;;;6214444;27;81594;-62
2024/01/08 10:46:58;;;;;;;10.98;6.90;;;23.40;30.00;;;;;;6215508;27;80560;-62
2024/01/08 10:49:58;;;;;;;9.70;5.85;;;23.50;30.00;;;;;;6221577;27;80444;-61
2024/01/08 10:52:59;;;;;;;10.98;6.88;;;23.50;30.00;;;;;;6217106;27;82228;-61
2024/01/08 10:55:59;;;;;;;8.70;6.18;;;23.60;30.00;;;;;;6221363;27;80443;-63
2024/01/08 10:59:00;;;;;;;9.70;6.38;;;23.70;30.10;;;;;;6219171;27;80583;-63
2024/01/08 11:02:00;;;;;;;10.15;6.78;;;23.70;30.20;;;;;;6222568;27;80683;-61
2024/01/08 11:05:01;;;;;;;9.18;6.28;;;23.80;30.00;;;;;;6217941;27;80399;-61
2024/01/08 11:08:01;;;;;;;9.55;6.88;;;23.80;30.10;;;;;;6210718;27;80774;-62
2024/01/08 11:11:02;;;;;;;10.88;6.35;;;23.80;30.40;;;;;;6212374;28;80525;-53
2024/01/08 11:14:03;;;;;;;11.77;6.40;;;23.70;30.30;;;;;;6213127;27;80627;-53
2024/01/08 11:17:04;;;;;;;9.45;6.43;;;23.70;30.60;;;;;;6212027;27;80557;-51
2024/01/08 11:20:06;;;;;;;10.10;6.63;;;23.70;30.70;;;;;;6222845;27;80617;-52
2024/01/08 11:23:06;;;;;;;10.48;6.65;;;23.70;30.90;;;;;;6223810;27;80683;-50
2024/01/08 11:26:07;;;;;;;9.27;6.20;;;23.70;31.10;;;;;;6223619;27;80871;-55
2024/01/08 11:29:08;;;;;;;9.10;5.93;;;23.70;31.10;;;;;;6227084;27;81021;-59
2024/01/08 11:32:09;;;;;;;9.65;6.47;;;23.70;31.10;;;;;;6221078;27;80237;-59
2024/01/08 11:35:13;;;;;;;10.25;6.40;;;23.60;31.00;;;;;;6216894;27;85910;-59
2024/01/08 11:38:14;;;;;;;11.82;6.55;;;23.60;30.90;;;;;;6226939;27;82962;-59
2024/01/08 11:41:14;;;;;;;9.15;6.40;;;23.50;30.80;;;;;;6227272;27;80898;-59
2024/01/08 11:44:15;;;;;;;10.73;7.00;;;23.50;30.70;;;;;;6225651;27;81076;-60
2024/01/08 11:47:15;;;;;;;9.02;6.38;;;23.50;30.70;;;;;;6227058;27;80863;-58
2024/01/08 11:50:16;;;;;;;9.95;6.30;;;23.40;30.60;;;;;;6226034;27;80966;-59
2024/01/08 11:53:16;;;;;;;9.82;6.50;;;23.40;30.20;;;;;;6225941;27;80317;-59
2024/01/08 11:56:17;;;;;;;10.40;7.18;;;23.40;30.20;;;;;;6226748;27;81096;-59
2024/01/08 11:59:17;;;;;;;11.77;7.75;;;23.40;29.80;;;;;;6223551;27;80412;-58
2024/01/08 12:02:18;;;;;;;11.63;6.95;;;23.40;29.60;;;;;;6225316;27;80595;-60
2024/01/08 12:05:19;;;;;;;10.73;6.78;;;23.30;30.00;;;;;;6223136;27;80560;-56
2024/01/08 12:08:19;;;;;;;10.38;6.50;;;23.30;29.80;;;;;;6226461;27;83680;-54
2024/01/08 12:11:19;;;;;;;9.95;6.28;;;23.30;30.10;;;;;;6225710;27;82778;-53
2024/01/08 12:14:20;;;;;;;11.25;7.10;;;23.30;29.90;;;;;;6222001;27;80457;-54
2024/01/08 12:17:21;;;;;;;12.13;7.32;;;23.30;30.00;;;;;;6216678;27;81040;-52
2024/01/08 12:20:21;;;;;;;11.73;6.95;;;23.20;30.10;;;;;;6224662;27;80545;-52
2024/01/08 12:23:22;;;;;;;10.45;6.18;;;23.20;30.20;;;;;;6218320;27;80774;-51
2024/01/08 12:26:22;;;;;;;9.77;6.30;;;23.20;30.10;;;;;;6204300;27;83207;-59
2024/01/08 12:29:23;;;;;;;10.52;6.47;;;23.20;30.10;;;;;;6227744;27;80755;-58
2024/01/08 12:32:23;;;;;;;9.57;6.30;;;23.20;30.00;;;;;;6214189;27;80840;-60
2024/01/08 12:35:24;;;;;;;9.43;6.57;;;23.30;30.10;;;;;;6226196;27;81310;-59
2024/01/08 12:38:24;;;;;;;8.85;6.32;;;23.50;30.00;;;;;;6225206;28;86006;-59
2024/01/08 12:41:25;;;;;;;9.65;6.72;;;23.60;30.30;;;;;;6226573;27;80718;-57
2024/01/08 12:44:26;;;;;;;9.50;5.85;;;23.60;29.90;;;;;;6224905;27;80509;-59
2024/01/08 12:47:27;;;;;;;8.23;6.05;;;23.50;30.00;;;;;;6223484;27;80872;-59
2024/01/08 12:50:27;;;;;;;8.88;5.68;;;23.60;29.80;;;;;;6215841;27;80363;-57
2024/01/08 12:53:28;;;;;;;10.52;6.55;;;23.50;30.00;;;;;;6215128;27;80712;-58
2024/01/08 12:56:28;;;;;;;10.27;7.22;;;23.50;29.80;;;;;;6204355;27;81795;-58
2024/01/08 12:59:29;;;;;;;10.00;6.40;;;23.40;30.00;;;;;;6204672;27;81293;-57
2024/01/08 13:02:32;;;;;;;11.65;7.00;;;23.30;30.00;;;;;;6211370;27;80607;-56
2024/01/08 13:05:32;;;;;;;9.35;6.30;;;23.40;30.00;;;;;;6225037;27;80253;-55
2024/01/08 13:08:34;;;;;;;10.23;7.50;;;23.30;30.10;;;;;;6225164;27;80355;-51
2024/01/08 13:11:35;;;;;;;14.07;8.07;;;23.20;30.20;;;;;;6220568;27;80889;-56
2024/01/08 13:14:36;;;;;;;10.90;7.18;;;23.20;30.60;;;;;;6220867;27;81615;-55
2024/01/08 13:17:36;;;;;;;9.82;6.93;;;23.10;30.40;;;;;;6223868;27;80356;-53
2024/01/08 13:20:37;;;;;;;12.43;7.65;;;23.00;30.80;;;;;;6218151;27;80571;-57
2024/01/08 13:23:39;;;;;;;10.80;6.95;;;23.00;30.90;;;;;;6210191;27;80731;-54
2024/01/08 13:26:39;;;;;;;12.98;6.88;;;23.00;31.70;;;;;;6222060;27;84650;-56
2024/01/08 13:29:40;;;;;;;10.93;7.30;;;23.00;31.20;;;;;;6215432;27;83221;-59
2024/01/08 13:32:40;;;;;;;11.40;7.15;;;23.00;30.80;;;;;;6216357;27;80596;-58
2024/01/08 13:35:41;;;;;;;12.82;7.75;;;23.00;30.20;;;;;;6221873;27;81201;-57
2024/01/08 13:38:41;;;;;;;13.52;8.23;;;23.00;30.00;;;;;;6218369;27;80454;-53
2024/01/08 13:41:42;;;;;;;12.82;7.60;;;23.00;30.00;;;;;;6218147;27;80757;-55
2024/01/08 13:44:42;;;;;;;12.23;7.82;;;23.10;29.90;;;;;;6221734;27;80742;-54
2024/01/08 13:47:43;;;;;;;11.73;8.13;;;23.10;29.90;;;;;;6216164;27;80578;-57
2024/01/08 13:50:43;;;;;;;13.25;8.02;;;23.10;29.80;;;;;;6214796;27;80933;-56
2024/01/08 13:53:43;;;;;;;11.48;7.90;;;23.20;29.70;;;;;;6216320;27;82440;-51
2024/01/08 13:56:44;;;;;;;12.48;8.35;;;23.30;29.80;;;;;;6216584;27;81600;-51
2024/01/08 13:59:44;;;;;;;11.27;8.15;;;23.30;29.60;;;;;;6216767;28;80818;-49
2024/01/08 14:02:45;;;;;;;11.63;7.72;;;23.40;29.70;;;;;;6218858;27;81722;-53
2024/01/08 14:05:45;;;;;;;11.07;7.22;;;23.50;29.70;;;;;;6224794;27;81733;-51
2024/01/08 14:08:46;;;;;;;12.55;8.25;;;23.40;30.40;;;;;;6225789;27;80430;-54
2024/01/08 14:11:47;;;;;;;14.27;8.68;;;23.50;30.30;;;;;;6224658;27;80117;-54
2024/01/08 14:14:48;;;;;;;13.20;8.38;;;23.50;30.50;;;;;;6219330;27;80377;-60
2024/01/08 14:17:50;;;;;;;14.95;8.35;;;23.50;30.40;;;;;;6223397;27;82204;-59
2024/01/08 14:20:50;;;;;;;11.93;8.00;;;23.50;30.60;;;;;;6225061;27;80484;-58
2024/01/08 14:23:50;;;;;;;13.73;8.70;;;23.50;30.00;;;;;;6212929;27;84263;-59
2024/01/08 14:26:51;;;;;;;14.50;8.68;;;23.40;30.00;;;;;;6207886;27;80334;-61
2024/01/08 14:29:52;;;;;;;12.60;8.55;;;23.30;29.90;;;;;;6223731;27;82213;-59
2024/01/08 14:32:53;;;;;;;15.00;9.32;;;23.20;29.90;;;;;;6225494;28;80433;-57
2024/01/08 14:35:53;;;;;;;14.73;8.52;;;23.20;30.30;;;;;;6224289;27;80651;-56
2024/01/08 14:38:54;;;;;;;12.15;8.55;;;23.10;29.70;;;;;;6225910;27;81647;-57
2024/01/08 14:41:54;;;;;;;12.75;8.43;;;23.00;29.80;;;;;;6224731;27;81612;-55
2024/01/08 14:44:55;;;;;;;12.95;8.43;;;23.00;29.30;;;;;;6224203;27;85440;-55
2024/01/08 14:47:55;;;;;;;12.63;8.52;;;22.90;29.50;;;;;;6224744;27;80359;-58
2024/01/08 14:50:56;;;;;;;11.70;8.23;;;22.80;29.40;;;;;;6224000;27;82220;-52
2024/01/08 14:53:56;;;;;;;14.65;9.45;;;22.80;29.30;;;;;;6225315;27;83045;-50
2024/01/08 14:56:57;;;;;;;15.35;9.02;;;22.80;29.10;;;;;;6224355;27;81051;-52
2024/01/08 14:59:57;;;;;;;14.05;8.88;;;22.70;29.10;;;;;;6224417;27;80341;-52
2024/01/08 15:02:58;;;;;;;14.02;8.52;;;22.60;29.10;;;;;;6214660;27;82812;-55
2024/01/08 15:05:58;;;;;;;16.67;8.32;;;22.60;29.10;;;;;;6220802;27;80461;-51
2024/01/08 15:08:59;;;;;;;22.45;10.10;;;22.60;29.30;;;;;;6213922;27;80996;-55
2024/01/08 15:11:59;;;;;;;12.55;8.95;;;22.60;29.60;;;;;;6223980;27;83936;-63
2024/01/08 15:15:00;;;;;;;20.77;10.43;;;22.50;29.40;;;;;;6227920;27;82946;-52
2024/01/08 15:18:00;;;;;;;16.55;9.75;;;22.50;30.70;;;;;;6216657;27;87491;-52
2024/01/08 15:21:01;;;;;;;18.30;9.70;;;22.50;30.30;;;;;;6218523;27;86114;-54
2024/01/08 15:24:03;;;;;;;14.88;8.05;;;22.50;30.20;;;;;;6223525;27;81687;-55
2024/01/08 15:27:04;;;;;;;18.13;8.65;;;22.50;31.00;;;;;;6223246;27;84073;-55
2024/01/08 15:30:08;;;;;;;15.75;8.55;;;22.50;32.40;;;;;;6228199;27;84922;-58
2024/01/08 15:33:09;;;;;;;13.73;7.68;;;22.50;31.70;;;;;;6225687;27;82209;-59